createdAt,value
2018-12-19T00:01:38.898Z,38.00
2018-12-19T00:04:08.495Z,36.47
2018-12-19T00:06:38.718Z,37.67
2018-12-19T00:09:08.891Z,36.43
2018-12-19T00:11:38.524Z,28.53
2018-12-19T00:14:08.469Z,23.90
2018-12-19T00:16:38.218Z,19.10
2018-12-19T00:19:07.880Z,19.93
2018-12-19T00:21:37.457Z,23.77
2018-12-19T00:24:08.258Z,24.13
2018-12-19T00:26:37.905Z,27.80
2018-12-19T00:29:07.575Z,29.93
2018-12-19T00:31:37.149Z,26.70
2018-12-19T00:34:06.885Z,23.33
2018-12-19T00:36:36.702Z,29.20
2018-12-19T00:39:09.630Z,28.93
2018-12-19T00:41:39.537Z,28.03
2018-12-19T00:44:09.176Z,19.27
2018-12-19T00:46:39.666Z,16.40
2018-12-19T00:49:10.211Z,21.77
2018-12-19T00:51:39.857Z,26.47
2018-12-19T00:54:09.433Z,19.57
2018-12-19T00:56:39.077Z,21.63
2018-12-19T00:59:08.637Z,19.53
2018-12-19T01:01:38.409Z,16.03
2018-12-19T01:04:08.174Z,16.73
2018-12-19T01:06:38.372Z,17.17
2018-12-19T01:09:08.751Z,16.03
2018-12-19T01:11:38.711Z,16.87
2018-12-19T01:14:08.406Z,16.67
2018-12-19T01:16:38.458Z,17.23
2018-12-19T01:19:08.205Z,17.10
2018-12-19T01:21:38.008Z,16.57
2018-12-19T01:24:07.847Z,16.20
2018-12-19T01:26:37.654Z,18.93
2018-12-19T01:29:07.480Z,18.47
2018-12-19T01:31:37.408Z,22.33
2018-12-19T01:34:06.931Z,21.57
2018-12-19T01:36:37.346Z,18.57
2018-12-19T01:39:08.806Z,19.77
2018-12-19T01:41:38.680Z,19.63
2018-12-19T01:44:08.427Z,18.30
2018-12-19T01:46:38.194Z,19.13
2018-12-19T01:49:08.019Z,24.63
2018-12-19T01:51:37.910Z,22.00
2018-12-19T01:54:07.781Z,20.80
2018-12-19T01:56:37.589Z,17.37
2018-12-19T01:59:07.277Z,18.30
2018-12-19T02:01:36.926Z,20.67
2018-12-19T02:04:06.901Z,17.57
2018-12-19T02:06:36.554Z,14.93
2018-12-19T02:09:08.597Z,15.73
2018-12-19T02:11:38.389Z,14.33
2018-12-19T02:14:08.246Z,13.50
2018-12-19T02:16:37.995Z,14.23
2018-12-19T02:19:07.847Z,14.87
2018-12-19T02:21:37.485Z,13.47
2018-12-19T02:24:07.290Z,14.70
2018-12-19T02:26:37.202Z,15.10
2018-12-19T02:29:06.905Z,14.13
2018-12-19T02:31:36.575Z,15.20
2018-12-19T02:34:06.470Z,15.23
2018-12-19T02:36:36.225Z,14.60
2018-12-19T02:39:08.338Z,13.67
2018-12-19T02:41:38.054Z,14.57
2018-12-19T02:44:07.875Z,14.70
2018-12-19T02:46:37.639Z,13.53
2018-12-19T02:49:07.415Z,13.63
2018-12-19T02:51:37.219Z,12.47
2018-12-19T02:54:06.875Z,12.43
2018-12-19T02:56:36.433Z,11.93
2018-12-19T02:59:06.001Z,13.43
2018-12-19T03:01:35.737Z,13.00
2018-12-19T03:04:05.674Z,12.57
2018-12-19T03:06:35.317Z,12.33
2018-12-19T03:09:07.444Z,12.30
2018-12-19T03:11:37.209Z,11.60
2018-12-19T03:14:06.849Z,11.43
2018-12-19T03:16:37.434Z,11.80
2018-12-19T03:19:06.960Z,11.57
2018-12-19T03:21:36.935Z,11.37
2018-12-19T03:24:06.632Z,11.57
2018-12-19T03:26:36.251Z,11.37
2018-12-19T03:29:05.951Z,11.20
2018-12-19T03:31:36.007Z,11.67
2018-12-19T03:34:05.749Z,10.80
2018-12-19T03:36:35.514Z,10.47
2018-12-19T03:39:08.514Z,10.77
2018-12-19T03:41:38.253Z,10.63
2018-12-19T03:44:07.977Z,11.63
2018-12-19T03:46:37.787Z,11.57
2018-12-19T03:49:07.646Z,10.87
2018-12-19T03:51:37.391Z,11.50
2018-12-19T03:54:07.245Z,12.10
2018-12-19T03:56:36.913Z,10.70
2018-12-19T03:59:06.660Z,10.33
2018-12-19T04:01:36.230Z,9.57
2018-12-19T04:04:06.065Z,10.47
2018-12-19T04:06:35.766Z,11.83
2018-12-19T04:09:07.505Z,10.87
2018-12-19T04:11:37.131Z,10.07
2018-12-19T04:14:07.177Z,10.77
2018-12-19T04:16:36.986Z,9.60
2018-12-19T04:19:06.494Z,11.27
2018-12-19T04:21:36.126Z,11.17
2018-12-19T04:24:06.081Z,12.40
2018-12-19T04:26:35.985Z,10.40
2018-12-19T04:29:05.558Z,11.00
2018-12-19T04:31:35.091Z,11.03
2018-12-19T04:34:05.606Z,11.07
2018-12-19T04:36:35.283Z,9.03
2018-12-19T04:39:06.794Z,11.20
2018-12-19T04:41:36.558Z,11.37
2018-12-19T04:44:06.147Z,11.27
2018-12-19T04:46:35.827Z,11.67
2018-12-19T04:49:05.754Z,11.40
2018-12-19T04:51:35.615Z,13.17
2018-12-19T04:54:05.298Z,11.83
2018-12-19T04:56:34.930Z,11.83
2018-12-19T04:59:04.669Z,12.00
2018-12-19T05:01:34.346Z,11.20
2018-12-19T05:04:04.099Z,11.07
2018-12-19T05:06:34.128Z,11.53
2018-12-19T05:09:05.031Z,10.83
2018-12-19T05:11:35.029Z,11.07
2018-12-19T05:14:04.461Z,10.33
2018-12-19T05:16:34.389Z,10.60
2018-12-19T05:19:04.120Z,11.33
2018-12-19T05:21:33.926Z,10.77
2018-12-19T05:24:04.016Z,10.73
2018-12-19T05:26:33.763Z,10.17
2018-12-19T05:29:03.541Z,11.93
2018-12-19T05:31:33.581Z,11.97
2018-12-19T05:34:03.395Z,11.70
2018-12-19T05:36:33.375Z,11.93
2018-12-19T05:42:50.331Z,12.40
2018-12-19T05:45:20.181Z,12.83
2018-12-19T05:47:50.027Z,12.10
2018-12-19T05:50:22.093Z,11.90
2018-12-19T05:52:52.003Z,15.13
2018-12-19T05:55:21.831Z,17.13
2018-12-19T05:57:51.669Z,18.10
2018-12-19T06:00:21.527Z,16.33
2018-12-19T06:02:51.380Z,13.83
2018-12-19T06:05:21.225Z,15.83
2018-12-19T06:07:50.974Z,14.90
2018-12-19T06:10:26.216Z,13.10
2018-12-19T06:12:52.555Z,14.43
2018-12-19T06:15:22.357Z,13.30
2018-12-19T06:17:51.890Z,12.93
2018-12-19T06:20:21.612Z,12.97
2018-12-19T06:22:51.320Z,12.70
2018-12-19T06:25:21.048Z,12.17
2018-12-19T06:27:51.045Z,13.30
2018-12-19T06:30:21.231Z,13.43
2018-12-19T06:32:50.872Z,13.40
2018-12-19T06:35:20.579Z,13.57
2018-12-19T06:37:50.408Z,14.83
2018-12-19T06:40:20.282Z,37.47
2018-12-19T06:42:50.258Z,28.53
2018-12-19T06:45:19.913Z,20.67
2018-12-19T06:47:49.850Z,22.50
2018-12-19T06:50:19.416Z,23.60
2018-12-19T06:52:49.151Z,14.33
2018-12-19T06:55:18.852Z,20.93
2018-12-19T06:57:48.541Z,16.20
2018-12-19T07:00:18.343Z,21.97
2018-12-19T07:02:47.804Z,25.87
2018-12-19T07:05:18.171Z,16.23
2018-12-19T07:07:47.871Z,14.47
2018-12-19T07:10:17.611Z,14.97
2018-12-19T07:12:47.504Z,14.30
2018-12-19T07:15:17.206Z,13.43
2018-12-19T07:17:47.030Z,51.40
2018-12-19T07:20:16.651Z,23.10
2018-12-19T07:22:46.602Z,17.93
2018-12-19T07:25:16.321Z,14.70
2018-12-19T07:27:46.081Z,13.70
2018-12-19T07:30:15.911Z,15.03
2018-12-19T07:32:45.838Z,13.60
2018-12-19T07:35:15.666Z,14.17
2018-12-19T07:37:45.347Z,14.40
2018-12-19T07:40:15.178Z,14.23
2018-12-19T07:42:44.755Z,17.67
2018-12-19T07:45:14.530Z,15.23
2018-12-19T07:47:44.190Z,15.80
2018-12-19T07:50:13.901Z,14.07
2018-12-19T07:52:43.645Z,13.60
2018-12-19T07:55:13.393Z,13.00
2018-12-19T07:57:43.307Z,14.27
2018-12-19T08:00:13.091Z,14.90
2018-12-19T08:02:43.060Z,13.03
2018-12-19T08:05:12.858Z,11.87
2018-12-19T08:07:43.007Z,14.33
2018-12-19T08:10:12.828Z,13.33
2018-12-19T08:12:42.534Z,12.27
2018-12-19T08:15:12.292Z,11.60
2018-12-19T08:17:42.311Z,13.03
2018-12-19T08:20:12.011Z,12.10
2018-12-19T08:22:41.508Z,13.63
2018-12-19T08:25:11.237Z,12.13
2018-12-19T08:27:41.058Z,13.63
2018-12-19T08:30:11.769Z,13.27
2018-12-19T08:32:41.502Z,12.60
2018-12-19T08:35:11.325Z,13.17
2018-12-19T08:37:41.143Z,12.90
2018-12-19T08:40:10.695Z,12.47
2018-12-19T08:42:40.363Z,11.60
2018-12-19T08:45:10.159Z,12.73
2018-12-19T08:47:40.010Z,12.67
2018-12-19T08:50:10.764Z,12.13
2018-12-19T08:52:40.354Z,12.40
2018-12-19T08:55:10.135Z,12.10
2018-12-19T08:57:39.789Z,11.33
2018-12-19T09:00:11.281Z,12.87
2018-12-19T09:02:41.190Z,13.40
2018-12-19T09:05:10.845Z,14.17
2018-12-19T09:07:40.360Z,14.93
2018-12-19T09:10:10.094Z,16.77
2018-12-19T09:12:39.930Z,16.10
2018-12-19T09:15:09.666Z,18.50
2018-12-19T09:17:39.247Z,20.60
2018-12-19T09:20:09.171Z,22.80
2018-12-19T09:22:38.712Z,21.47
2018-12-19T09:25:08.559Z,19.13
2018-12-19T09:27:37.943Z,17.07
2018-12-19T09:30:09.627Z,17.47
2018-12-19T09:32:39.227Z,15.20
2018-12-19T09:35:08.911Z,15.30
2018-12-19T09:37:38.613Z,13.10
2018-12-19T09:40:08.120Z,13.00
2018-12-19T09:42:37.680Z,12.83
2018-12-19T09:45:07.542Z,11.73
2018-12-19T09:47:37.015Z,17.23
2018-12-19T09:50:06.747Z,11.77
2018-12-19T09:52:36.391Z,12.07
2018-12-19T09:55:06.172Z,12.43
2018-12-19T09:57:36.025Z,12.63
2018-12-19T10:00:06.629Z,12.83
2018-12-19T10:02:36.333Z,13.03
2018-12-19T10:05:05.901Z,12.60
2018-12-19T10:07:35.574Z,12.87
2018-12-19T10:10:05.429Z,12.70
2018-12-19T10:12:34.958Z,13.60
2018-12-19T10:15:04.674Z,12.90
2018-12-19T10:17:40.783Z,12.07
2018-12-19T10:20:06.434Z,12.17
2018-12-19T10:22:36.862Z,12.77
2018-12-19T10:25:11.870Z,14.53
2018-12-19T10:27:41.660Z,14.33
2018-12-19T10:30:13.162Z,18.53
2018-12-19T10:32:42.686Z,17.50
2018-12-19T10:35:13.071Z,17.37
2018-12-19T10:37:42.750Z,18.93
2018-12-19T10:40:13.125Z,22.77
2018-12-19T10:42:42.585Z,24.30
2018-12-19T10:45:12.488Z,19.20
2018-12-19T10:47:42.018Z,19.80
2018-12-19T10:50:11.978Z,21.97
2018-12-19T10:52:41.512Z,19.60
2018-12-19T10:55:11.377Z,19.10
2018-12-19T10:57:40.947Z,17.17
2018-12-19T11:00:18.164Z,19.70
2018-12-19T11:02:49.001Z,18.33
2018-12-19T11:05:18.623Z,15.87
2018-12-19T11:07:49.419Z,16.77
2018-12-19T11:10:19.073Z,13.53
2018-12-19T11:12:49.533Z,10.97
2018-12-19T11:15:19.910Z,10.27
2018-12-19T11:17:49.528Z,11.80
2018-12-19T11:20:18.990Z,11.00
2018-12-19T11:22:48.717Z,13.53
2018-12-19T11:25:18.329Z,11.60
2018-12-19T11:27:48.046Z,12.07
2018-12-19T11:30:17.881Z,10.83
2018-12-19T11:32:47.415Z,9.73
2018-12-19T11:35:16.985Z,9.87
2018-12-19T11:37:46.527Z,9.90
2018-12-19T11:40:16.129Z,10.40
2018-12-19T11:42:45.663Z,9.80
2018-12-19T11:45:15.434Z,9.07
2018-12-19T11:47:44.898Z,8.87
2018-12-19T11:50:14.728Z,10.00
2018-12-19T11:52:44.543Z,10.40
2018-12-19T11:55:14.219Z,10.80
2018-12-19T11:57:43.859Z,11.33
2018-12-19T12:00:13.795Z,11.57
2018-12-19T12:02:43.294Z,12.00
2018-12-19T12:05:13.487Z,11.67
2018-12-19T12:07:43.321Z,11.90
2018-12-19T12:10:12.884Z,11.27
2018-12-19T12:12:42.566Z,10.27
2018-12-19T12:15:12.173Z,10.33
2018-12-19T12:17:44.656Z,9.83
2018-12-19T12:20:14.140Z,8.20
2018-12-19T12:22:44.851Z,8.60
2018-12-19T12:25:15.291Z,10.13
2018-12-19T12:27:45.063Z,10.87
2018-12-19T12:30:15.348Z,11.17
2018-12-19T12:32:45.088Z,10.60
2018-12-19T12:35:14.480Z,11.60
2018-12-19T12:37:44.395Z,11.07
2018-12-19T12:40:14.657Z,11.27
2018-12-19T12:42:44.375Z,11.70
2018-12-19T12:45:14.035Z,12.20
2018-12-19T12:47:43.570Z,11.93
2018-12-19T12:50:13.251Z,12.53
2018-12-19T12:52:43.313Z,11.90
2018-12-19T12:55:13.468Z,11.57
2018-12-19T12:57:43.242Z,11.17
2018-12-19T13:00:12.931Z,12.07
2018-12-19T13:02:42.584Z,9.23
2018-12-19T13:05:12.645Z,9.80
2018-12-19T13:07:42.522Z,9.37
2018-12-19T13:10:12.803Z,9.20
2018-12-19T13:12:42.278Z,9.30
2018-12-19T13:15:13.925Z,10.10
2018-12-19T13:17:43.885Z,9.00
2018-12-19T13:20:13.541Z,10.20
2018-12-19T13:22:43.165Z,10.00
2018-12-19T13:25:13.471Z,9.43
2018-12-19T13:27:43.021Z,10.43
2018-12-19T13:30:12.686Z,10.13
2018-12-19T13:32:42.294Z,9.93
2018-12-19T13:35:11.843Z,10.20
2018-12-19T13:37:41.296Z,9.77
2018-12-19T13:40:11.107Z,9.37
2018-12-19T13:42:40.499Z,8.83
2018-12-19T13:45:10.016Z,8.13
2018-12-19T13:47:39.543Z,8.40
2018-12-19T13:50:09.879Z,9.10
2018-12-19T13:52:40.227Z,9.63
2018-12-19T13:55:10.413Z,9.07
2018-12-19T13:57:40.151Z,8.90
2018-12-19T14:00:11.727Z,10.03
2018-12-19T14:02:41.443Z,9.60
2018-12-19T14:05:11.087Z,9.87
2018-12-19T14:07:40.774Z,10.07
2018-12-19T14:10:10.259Z,10.60
2018-12-19T14:12:39.898Z,10.63
2018-12-19T14:15:09.803Z,9.87
2018-12-19T14:17:39.422Z,11.07
2018-12-19T14:20:09.705Z,10.17
2018-12-19T14:22:39.345Z,11.70
2018-12-19T14:25:09.108Z,11.63
2018-12-19T14:27:38.752Z,11.40
2018-12-19T14:30:09.438Z,12.00
2018-12-19T14:32:38.862Z,10.63
2018-12-19T14:35:08.530Z,11.17
2018-12-19T14:37:38.003Z,11.07
2018-12-19T14:40:07.817Z,11.17
2018-12-19T14:42:37.298Z,11.20
2018-12-19T14:45:07.958Z,11.67
2018-12-19T14:47:38.441Z,13.40
2018-12-19T14:50:08.715Z,13.00
2018-12-19T14:52:38.177Z,12.90
2018-12-19T14:55:07.868Z,13.17
2018-12-19T14:57:37.326Z,13.53
2018-12-19T15:00:08.211Z,12.30
2018-12-19T15:02:38.067Z,13.53
2018-12-19T15:05:07.844Z,11.47
2018-12-19T15:07:37.467Z,11.57
2018-12-19T15:10:07.704Z,11.70
2018-12-19T15:12:37.231Z,13.00
2018-12-19T15:15:08.657Z,13.73
2018-12-19T15:17:38.059Z,12.63
2018-12-19T15:20:07.771Z,12.47
2018-12-19T15:22:38.211Z,13.83
2018-12-19T15:25:07.812Z,13.10
2018-12-19T15:27:37.374Z,14.20
2018-12-19T15:30:07.420Z,15.10
2018-12-19T15:32:38.379Z,16.10
2018-12-19T15:35:08.113Z,15.63
2018-12-19T15:37:37.963Z,15.50
2018-12-19T15:40:07.793Z,15.77
2018-12-19T15:42:37.205Z,15.47
2018-12-19T15:45:07.635Z,15.00
2018-12-19T15:47:37.293Z,17.10
2018-12-19T15:50:07.839Z,16.67
2018-12-19T15:52:37.352Z,17.00
2018-12-19T15:55:07.256Z,18.13
2018-12-19T15:57:36.955Z,20.90
2018-12-19T16:00:09.006Z,20.53
2018-12-19T16:02:38.658Z,20.07
2018-12-19T16:05:08.531Z,21.67
2018-12-19T16:07:38.026Z,25.43
2018-12-19T16:10:08.295Z,27.07
2018-12-19T16:12:39.366Z,30.03
2018-12-19T16:15:09.567Z,30.73
2018-12-19T16:17:39.065Z,30.17
2018-12-19T16:20:09.716Z,34.20
2018-12-19T16:22:39.477Z,34.73
2018-12-19T16:25:09.215Z,34.30
2018-12-19T16:27:38.930Z,35.73
2018-12-19T16:30:09.702Z,37.40
2018-12-19T16:32:39.583Z,37.07
2018-12-19T16:35:09.146Z,39.90
2018-12-19T16:37:38.887Z,35.97
2018-12-19T16:40:08.597Z,32.17
2018-12-19T16:42:38.134Z,29.63
2018-12-19T16:45:08.861Z,30.67
2018-12-19T16:47:38.688Z,23.10
2018-12-19T16:50:08.613Z,27.50
2018-12-19T16:52:38.288Z,23.90
2018-12-19T16:55:07.998Z,25.83
2018-12-19T16:57:37.654Z,27.73
2018-12-19T17:00:08.166Z,27.57
2018-12-19T17:02:37.821Z,27.13
2018-12-19T17:05:08.248Z,29.20
2018-12-19T17:07:38.240Z,25.67
2018-12-19T17:10:09.020Z,21.80
2018-12-19T17:12:38.556Z,25.37
2018-12-19T17:15:08.367Z,21.83
2018-12-19T17:17:37.977Z,22.07
2018-12-19T17:20:08.549Z,22.40
2018-12-19T17:22:38.101Z,22.90
2018-12-19T17:25:08.098Z,22.80
2018-12-19T17:27:37.638Z,24.10
2018-12-19T17:30:07.409Z,23.87
2018-12-19T17:32:37.402Z,23.63
2018-12-19T17:35:07.686Z,24.27
2018-12-19T17:37:37.459Z,26.87
2018-12-19T17:40:07.774Z,25.13
2018-12-19T17:42:37.425Z,25.77
2018-12-19T17:45:07.767Z,25.30
2018-12-19T17:47:37.359Z,27.60
2018-12-19T17:50:07.846Z,26.93
2018-12-19T17:52:37.375Z,25.60
2018-12-19T17:55:07.495Z,25.53
2018-12-19T17:57:37.276Z,24.10
2018-12-19T18:00:07.139Z,24.70
2018-12-19T18:02:36.664Z,21.63
2018-12-19T18:05:06.684Z,24.27
2018-12-19T18:07:36.443Z,24.37
2018-12-19T18:10:06.263Z,24.57
2018-12-19T18:12:36.017Z,24.60
2018-12-19T18:15:06.248Z,24.13
2018-12-19T18:17:35.776Z,24.93
2018-12-19T18:20:05.827Z,22.70
2018-12-19T18:22:35.546Z,24.60
2018-12-19T18:25:05.392Z,23.77
2018-12-19T18:27:35.247Z,27.93
2018-12-19T18:30:04.899Z,34.90
2018-12-19T18:32:34.456Z,39.90
2018-12-19T18:35:04.039Z,41.67
2018-12-19T18:37:34.639Z,44.77
2018-12-19T18:40:04.702Z,48.33
2018-12-19T18:42:34.530Z,54.27
2018-12-19T18:45:04.389Z,50.47
2018-12-19T18:47:33.985Z,46.23
2018-12-19T18:50:03.835Z,46.67
2018-12-19T18:52:33.544Z,47.40
2018-12-19T18:55:03.033Z,47.13
2018-12-19T18:57:32.782Z,46.10
2018-12-19T19:00:02.626Z,44.17
2018-12-19T19:02:35.990Z,41.80
2018-12-19T19:05:06.387Z,30.17
2018-12-19T19:07:36.198Z,33.13
2018-12-19T19:10:06.279Z,40.33
2018-12-19T19:12:35.902Z,38.73
2018-12-19T19:15:05.819Z,33.77
2018-12-19T19:17:35.402Z,39.40
2018-12-19T19:20:05.185Z,35.27
2018-12-19T19:22:34.748Z,30.50
2018-12-19T19:25:04.435Z,44.30
2018-12-19T19:27:34.107Z,36.60
2018-12-19T19:30:03.654Z,56.67
2018-12-19T19:32:33.493Z,63.57
2018-12-19T19:35:03.145Z,45.43
2018-12-19T19:37:32.829Z,63.57
2018-12-19T19:40:02.369Z,52.63
2018-12-19T19:42:31.900Z,70.53
2018-12-19T19:45:01.527Z,60.53
2018-12-19T19:47:31.165Z,58.60
2018-12-19T19:50:00.821Z,74.17
2018-12-19T19:52:30.434Z,58.00
2018-12-19T19:55:00.142Z,49.27
2018-12-19T19:57:29.632Z,48.83
2018-12-19T19:59:59.286Z,49.30
2018-12-19T20:02:28.958Z,50.50
2018-12-19T20:04:58.646Z,52.23
2018-12-19T20:07:28.173Z,50.70
2018-12-19T20:09:57.988Z,48.83
2018-12-19T20:12:27.534Z,44.17
2018-12-19T20:14:58.545Z,48.33
2018-12-19T20:17:28.717Z,49.00
2018-12-19T20:19:58.313Z,40.17
2018-12-19T20:22:27.793Z,38.57
2018-12-19T20:24:57.720Z,60.57
2018-12-19T20:27:27.577Z,72.73
2018-12-19T20:29:57.204Z,75.10
2018-12-19T20:32:26.726Z,65.07
2018-12-19T20:34:56.199Z,73.80
2018-12-19T20:37:25.805Z,76.47
2018-12-19T20:39:55.544Z,48.17
2018-12-19T20:42:24.970Z,49.93
2018-12-19T20:44:54.858Z,41.73
2018-12-19T20:47:24.671Z,42.20
2018-12-19T20:50:15.892Z,48.70
2018-12-19T20:52:46.228Z,71.50
2018-12-19T20:55:16.035Z,73.73
2018-12-19T20:57:45.904Z,72.00
2018-12-19T21:00:15.819Z,73.07
2018-12-19T21:02:45.420Z,72.90
2018-12-19T21:05:15.086Z,71.73
2018-12-19T21:07:44.849Z,71.93
2018-12-19T21:10:14.552Z,70.30
2018-12-19T21:12:44.338Z,71.70
2018-12-19T21:15:14.095Z,71.80
2018-12-19T21:17:48.686Z,70.20
2018-12-19T21:20:18.355Z,62.43
2018-12-19T21:22:48.148Z,67.67
2018-12-19T21:25:17.947Z,68.03
2018-12-19T21:27:47.617Z,73.57
2018-12-19T21:30:17.539Z,71.73
2018-12-19T21:32:47.275Z,73.57
2018-12-19T21:35:17.035Z,69.47
2018-12-19T21:37:46.707Z,71.77
2018-12-19T21:40:16.474Z,66.17
2018-12-19T21:42:46.380Z,62.53
2018-12-19T21:45:16.038Z,65.03
2018-12-19T21:47:45.917Z,66.73
2018-12-19T21:50:15.453Z,69.60
2018-12-19T21:52:45.152Z,66.80
2018-12-19T21:55:14.899Z,71.43
2018-12-19T21:57:44.670Z,65.50
2018-12-19T22:00:19.531Z,64.67
2018-12-19T22:02:49.402Z,62.77
2018-12-19T22:05:19.263Z,65.20
2018-12-19T22:07:49.023Z,69.93
2018-12-19T22:10:18.689Z,62.57
2018-12-19T22:12:48.459Z,63.90
2018-12-19T22:15:18.289Z,70.33
2018-12-19T22:17:51.248Z,74.37
2018-12-19T22:20:20.919Z,73.90
2018-12-19T22:22:50.763Z,76.90
2018-12-19T22:25:20.659Z,65.13
2018-12-19T22:27:50.188Z,61.33
2018-12-19T22:30:19.811Z,76.83
2018-12-19T22:32:49.583Z,80.10
2018-12-19T22:35:19.425Z,84.50
2018-12-19T22:37:49.257Z,96.53
2018-12-19T22:40:19.122Z,61.97
2018-12-19T22:42:48.891Z,52.60
2018-12-19T22:45:18.578Z,72.53
2018-12-19T22:47:48.368Z,86.47
2018-12-19T22:50:18.179Z,90.53
2018-12-19T22:52:47.904Z,89.23
2018-12-19T22:55:17.770Z,89.67
2018-12-19T22:57:47.663Z,90.37
2018-12-19T23:00:17.691Z,92.10
2018-12-19T23:02:52.989Z,98.33
2018-12-19T23:05:28.221Z,93.23
2018-12-19T23:07:58.073Z,87.97
2018-12-19T23:10:27.638Z,86.73
2018-12-19T23:12:57.378Z,80.20
2018-12-19T23:15:27.175Z,81.07
2018-12-19T23:18:01.029Z,78.90
2018-12-19T23:20:30.800Z,71.97
2018-12-19T23:23:00.700Z,82.43
2018-12-19T23:25:30.552Z,77.60
2018-12-19T23:28:00.390Z,78.50
2018-12-19T23:30:30.152Z,68.73
2018-12-19T23:32:59.960Z,60.77
2018-12-19T23:35:30.017Z,57.73
2018-12-19T23:38:00.001Z,57.27
2018-12-19T23:40:29.684Z,54.83
2018-12-19T23:42:59.354Z,53.53
2018-12-19T23:45:29.086Z,56.23
2018-12-19T23:47:58.808Z,55.70
2018-12-19T23:50:28.646Z,55.07
2018-12-19T23:52:58.458Z,52.73
2018-12-19T23:55:28.261Z,53.80
2018-12-19T23:57:57.876Z,50.50
